createdAt,value
2023-03-29T00:01:00.198Z,61.94
2023-03-29T00:05:25.335Z,61.95
2023-03-29T00:08:02.021Z,61.81
2023-03-29T00:10:34.877Z,62.10
2023-03-29T00:13:03.430Z,62.03
2023-03-29T00:15:31.843Z,61.71
2023-03-29T00:18:00.013Z,61.55
2023-03-29T00:20:29.028Z,61.78
2023-03-29T00:22:57.214Z,61.72
2023-03-29T00:25:25.613Z,61.83
2023-03-29T00:27:53.749Z,62.10
2023-03-29T00:30:21.909Z,61.98
2023-03-29T00:32:51.445Z,62.02
2023-03-29T00:35:20.024Z,61.85
2023-03-29T00:37:50.944Z,62.19
2023-03-29T00:40:19.852Z,62.08
2023-03-29T00:42:47.994Z,62.09
2023-03-29T00:45:23.529Z,61.98
2023-03-29T00:48:02.215Z,62.09
2023-03-29T00:50:52.895Z,62.41
2023-03-29T00:53:53.215Z,62.55
2023-03-29T00:56:29.931Z,62.58
2023-03-29T00:59:02.209Z,62.28
2023-03-29T01:01:42.454Z,62.56
2023-03-29T01:04:47.712Z,62.36
2023-03-29T01:07:35.289Z,62.77
2023-03-29T01:10:14.637Z,62.72
2023-03-29T01:12:48.879Z,62.88
2023-03-29T01:15:25.668Z,63.08
2023-03-29T01:17:58.066Z,63.12
2023-03-29T01:20:49.175Z,63.24
2023-03-29T01:23:53.079Z,63.43
2023-03-29T01:26:42.668Z,63.50
2023-03-29T01:29:37.518Z,63.72
2023-03-29T01:32:15.017Z,63.65
2023-03-29T01:34:51.643Z,63.62
2023-03-29T01:37:30.216Z,63.70
2023-03-29T01:39:58.627Z,63.78
2023-03-29T01:43:04.184Z,63.86
2023-03-29T01:45:52.358Z,63.95
2023-03-29T01:48:32.007Z,63.77
2023-03-29T01:51:42.254Z,63.89
2023-03-29T01:54:22.854Z,63.78
2023-03-29T01:56:52.396Z,63.59
2023-03-29T01:59:26.606Z,63.43
2023-03-29T02:02:05.041Z,63.06
2023-03-29T02:04:40.412Z,62.92
2023-03-29T02:07:10.703Z,62.80
2023-03-29T02:09:40.289Z,62.72
2023-03-29T02:12:10.820Z,62.64
2023-03-29T02:14:39.789Z,62.51
2023-03-29T02:17:24.163Z,62.44
2023-03-29T02:20:14.771Z,62.17
2023-03-29T02:23:04.766Z,62.28
2023-03-29T02:37:00.136Z,62.33
2023-03-29T02:39:32.237Z,62.26
2023-03-29T02:42:02.855Z,61.97
2023-03-29T02:44:36.454Z,61.72
2023-03-29T02:47:16.745Z,61.92
2023-03-29T02:49:45.108Z,62.02
2023-03-29T02:52:19.471Z,61.99
2023-03-29T02:54:51.303Z,61.78
2023-03-29T02:57:26.464Z,61.84
2023-03-29T02:59:57.655Z,61.79
2023-03-29T03:02:26.035Z,61.52
2023-03-29T03:04:54.857Z,61.44
2023-03-29T03:07:24.920Z,61.22
2023-03-29T03:09:53.297Z,61.24
2023-03-29T03:12:21.478Z,61.20
2023-03-29T03:14:49.942Z,60.94
2023-03-29T03:17:18.961Z,60.95
2023-03-29T03:19:47.899Z,61.21
2023-03-29T03:22:16.178Z,61.51
2023-03-29T03:24:46.103Z,61.39
2023-03-29T03:27:14.300Z,61.37
2023-03-29T03:29:42.541Z,61.31
2023-03-29T03:32:29.613Z,61.39
2023-03-29T03:35:16.362Z,61.31
2023-03-29T03:37:44.677Z,61.27
2023-03-29T03:40:13.976Z,61.44
2023-03-29T03:42:42.485Z,61.66
2023-03-29T03:45:12.307Z,61.58
2023-03-29T03:47:52.780Z,61.66
2023-03-29T03:50:25.375Z,61.76
2023-03-29T03:52:53.632Z,61.35
2023-03-29T03:55:22.866Z,61.29
2023-03-29T03:58:07.290Z,61.28
2023-03-29T04:00:35.949Z,61.13
2023-03-29T04:03:18.850Z,61.30
2023-03-29T04:05:48.943Z,61.31
2023-03-29T04:08:17.819Z,61.51
2023-03-29T04:11:10.496Z,61.48
2023-03-29T04:13:40.958Z,61.40
2023-03-29T04:16:32.232Z,61.32
2023-03-29T04:19:07.793Z,61.51
2023-03-29T04:21:36.050Z,61.78
2023-03-29T04:24:04.652Z,61.72
2023-03-29T04:26:33.474Z,61.77
2023-03-29T04:29:12.478Z,61.74
2023-03-29T04:31:46.203Z,61.74
2023-03-29T04:34:43.323Z,61.94
2023-03-29T04:37:11.958Z,61.90
2023-03-29T04:39:41.260Z,62.00
2023-03-29T04:42:11.575Z,61.94
2023-03-29T04:44:41.459Z,61.91
2023-03-29T04:47:14.274Z,61.88
2023-03-29T04:50:12.391Z,61.85
2023-03-29T04:52:45.557Z,61.93
2023-03-29T04:55:14.158Z,62.00
2023-03-29T04:57:47.747Z,62.51
2023-03-29T05:00:27.003Z,62.91
2023-03-29T05:03:15.346Z,62.78
2023-03-29T05:05:51.784Z,62.96
2023-03-29T05:08:19.989Z,62.67
2023-03-29T05:11:11.833Z,62.14
2023-03-29T05:13:40.165Z,61.89
2023-03-29T05:16:11.197Z,61.46
2023-03-29T05:18:40.100Z,61.34
2023-03-29T05:21:09.513Z,61.27
2023-03-29T05:23:38.386Z,60.83
2023-03-29T05:26:18.879Z,60.68
2023-03-29T05:28:50.951Z,60.52
2023-03-29T05:31:20.012Z,60.42
2023-03-29T05:33:52.060Z,59.93
2023-03-29T05:36:20.907Z,59.74
2023-03-29T05:38:51.955Z,59.89
2023-03-29T05:41:21.177Z,59.32
2023-03-29T05:44:14.494Z,58.72
2023-03-29T05:46:44.479Z,58.80
2023-03-29T05:49:16.541Z,58.66
2023-03-29T05:51:57.043Z,58.59
2023-03-29T05:54:26.305Z,58.17
2023-03-29T05:56:54.662Z,58.66
2023-03-29T05:59:24.539Z,58.63
2023-03-29T06:01:52.987Z,58.13
2023-03-29T06:04:22.613Z,57.35
2023-03-29T06:07:18.326Z,57.59
2023-03-29T06:09:56.748Z,57.02
2023-03-29T06:12:26.366Z,57.03
2023-03-29T06:15:07.184Z,56.71
2023-03-29T06:17:40.334Z,56.78
2023-03-29T06:20:12.919Z,56.57
2023-03-29T06:22:44.265Z,56.38
2023-03-29T06:25:15.399Z,55.95
2023-03-29T06:27:48.943Z,55.44
2023-03-29T06:30:19.306Z,55.07
2023-03-29T06:32:50.653Z,55.21
2023-03-29T06:36:12.056Z,55.15
2023-03-29T06:38:41.709Z,55.23
2023-03-29T06:41:21.598Z,55.22
2023-03-29T06:44:36.341Z,53.94
2023-03-29T06:47:11.289Z,53.78
2023-03-29T06:49:39.616Z,53.51
2023-03-29T06:52:28.005Z,53.15
2023-03-29T06:54:57.031Z,53.33
2023-03-29T06:57:25.796Z,53.13
2023-03-29T06:59:55.179Z,53.07
2023-03-29T07:02:27.338Z,52.89
2023-03-29T07:04:58.375Z,53.42
2023-03-29T07:07:43.972Z,52.72
2023-03-29T07:10:38.341Z,52.06
2023-03-29T07:13:26.387Z,52.00
2023-03-29T07:15:54.901Z,51.78
2023-03-29T07:18:41.892Z,51.95
2023-03-29T07:21:12.671Z,52.04
2023-03-29T07:23:42.240Z,51.80
2023-03-29T07:26:11.400Z,52.07
2023-03-29T07:28:41.804Z,51.31
2023-03-29T07:31:12.440Z,51.25
2023-03-29T07:33:47.732Z,51.15
2023-03-29T07:36:16.719Z,50.99
2023-03-29T07:38:45.285Z,51.44
2023-03-29T07:41:18.177Z,51.22
2023-03-29T07:43:50.164Z,50.64
2023-03-29T07:46:19.740Z,50.68
2023-03-29T07:48:48.218Z,50.78
2023-03-29T07:51:16.870Z,50.85
2023-03-29T07:53:46.553Z,50.45
2023-03-29T07:56:35.490Z,50.28
2023-03-29T07:59:19.974Z,50.06
2023-03-29T08:01:55.427Z,49.30
2023-03-29T08:04:33.828Z,49.52
2023-03-29T08:07:20.149Z,49.00
2023-03-29T08:10:29.097Z,48.77
2023-03-29T08:13:12.599Z,48.62
2023-03-29T08:15:53.135Z,48.45
2023-03-29T08:18:29.643Z,47.05
2023-03-29T08:20:59.126Z,47.52
2023-03-29T08:23:27.574Z,47.43
2023-03-29T08:26:16.047Z,47.31
2023-03-29T08:28:44.881Z,47.26
2023-03-29T08:31:13.482Z,47.38
2023-03-29T08:33:44.524Z,46.57
2023-03-29T08:36:31.174Z,46.53
2023-03-29T08:39:03.497Z,46.97
2023-03-29T08:42:01.408Z,45.73
2023-03-29T08:45:03.897Z,44.91
2023-03-29T08:48:06.057Z,45.33
2023-03-29T08:50:52.821Z,45.16
2023-03-29T08:53:35.735Z,44.30
2023-03-29T08:56:33.971Z,45.54
2023-03-29T08:59:06.723Z,45.56
2023-03-29T09:01:36.771Z,45.12
2023-03-29T09:04:11.964Z,44.58
2023-03-29T09:07:27.323Z,44.99
2023-03-29T09:09:57.334Z,45.36
2023-03-29T09:12:54.774Z,45.30
2023-03-29T09:15:33.463Z,44.49
2023-03-29T09:18:34.780Z,44.24
2023-03-29T09:21:28.292Z,45.11
2023-03-29T09:24:15.797Z,44.88
2023-03-29T09:27:15.477Z,44.87
2023-03-29T09:30:17.196Z,44.96
2023-03-29T09:33:06.086Z,44.68
2023-03-29T09:36:42.467Z,44.62
2023-03-29T09:39:14.470Z,44.92
2023-03-29T09:42:04.369Z,45.11
2023-03-29T09:44:48.907Z,44.37
2023-03-29T09:47:51.012Z,45.03
2023-03-29T09:50:48.435Z,44.55
2023-03-29T09:53:18.792Z,44.02
2023-03-29T09:55:57.633Z,44.02
2023-03-29T09:59:10.517Z,43.57
2023-03-29T10:01:46.907Z,43.77
2023-03-29T10:04:16.862Z,43.00
2023-03-29T10:06:52.624Z,43.40
2023-03-29T10:09:24.343Z,43.50
2023-03-29T10:12:02.386Z,43.49
2023-03-29T10:14:43.478Z,43.46
2023-03-29T10:17:22.774Z,43.41
2023-03-29T10:20:04.244Z,42.25
2023-03-29T10:22:37.809Z,43.17
2023-03-29T10:25:14.673Z,43.50
2023-03-29T10:27:45.612Z,43.09
2023-03-29T10:30:26.054Z,43.03
2023-03-29T10:33:00.743Z,42.79
2023-03-29T10:35:41.682Z,42.35
2023-03-29T10:38:16.552Z,42.64
2023-03-29T10:40:51.804Z,42.72
2023-03-29T10:43:20.260Z,42.28
2023-03-29T10:45:51.223Z,42.45
2023-03-29T10:48:25.928Z,41.58
2023-03-29T10:50:59.002Z,41.90
2023-03-29T10:53:33.045Z,42.31
2023-03-29T10:56:23.069Z,42.22
2023-03-29T10:59:21.680Z,42.28
2023-03-29T11:02:08.100Z,42.10
2023-03-29T11:05:10.607Z,41.83
2023-03-29T11:08:17.111Z,42.26
2023-03-29T11:11:00.219Z,40.84
2023-03-29T11:13:53.510Z,40.48
2023-03-29T11:16:38.620Z,40.82
2023-03-29T11:19:16.208Z,41.02
2023-03-29T11:22:07.058Z,41.08
2023-03-29T11:25:10.081Z,40.59
2023-03-29T11:27:59.705Z,40.27
2023-03-29T11:30:42.943Z,40.33
2023-03-29T11:33:13.933Z,39.42
2023-03-29T11:36:17.772Z,39.69
2023-03-29T11:38:58.760Z,39.33
2023-03-29T11:41:32.853Z,38.51
2023-03-29T11:44:06.975Z,39.04
2023-03-29T11:46:42.662Z,39.09
2023-03-29T11:49:25.557Z,39.01
2023-03-29T11:52:06.374Z,39.06
2023-03-29T11:54:46.255Z,39.19
2023-03-29T11:57:35.245Z,39.44
2023-03-29T12:00:49.203Z,38.88
2023-03-29T12:03:46.771Z,38.56
2023-03-29T12:06:36.136Z,38.88
2023-03-29T12:09:27.424Z,39.16
2023-03-29T12:12:14.057Z,38.17
2023-03-29T12:15:07.000Z,37.62
2023-03-29T12:17:45.784Z,38.49
2023-03-29T12:20:27.120Z,38.62
2023-03-29T12:22:56.264Z,37.97
2023-03-29T12:25:34.469Z,38.48
2023-03-29T12:29:12.775Z,38.63
2023-03-29T12:32:16.027Z,38.19
2023-03-29T12:35:18.401Z,37.76
2023-03-29T12:38:24.161Z,38.62
2023-03-29T12:41:24.521Z,38.36
2023-03-29T12:44:16.716Z,37.85
2023-03-29T12:47:00.374Z,37.93
2023-03-29T12:49:34.329Z,37.51
2023-03-29T12:52:30.666Z,36.89
2023-03-29T12:55:02.845Z,36.80
2023-03-29T12:57:43.204Z,36.99
2023-03-29T13:00:27.039Z,37.43
2023-03-29T13:03:44.213Z,37.53
2023-03-29T13:06:13.514Z,36.19
2023-03-29T13:08:59.223Z,35.89
2023-03-29T13:11:40.794Z,35.70
2023-03-29T13:14:19.284Z,36.29
2023-03-29T13:16:48.346Z,36.91
2023-03-29T13:19:49.081Z,36.36
2023-03-29T13:22:26.591Z,36.40
2023-03-29T13:25:15.103Z,36.12
2023-03-29T13:28:19.416Z,35.70
2023-03-29T13:31:03.486Z,36.15
2023-03-29T13:33:43.203Z,35.85
2023-03-29T13:36:40.243Z,35.86
2023-03-29T13:39:23.413Z,36.44
2023-03-29T13:41:54.337Z,36.63
2023-03-29T13:44:22.535Z,35.99
2023-03-29T13:47:22.617Z,36.43
2023-03-29T13:49:58.865Z,36.41
2023-03-29T13:52:57.996Z,36.27
2023-03-29T13:55:33.606Z,36.62
2023-03-29T13:58:13.619Z,36.75
2023-03-29T14:01:01.673Z,36.94
2023-03-29T14:03:38.432Z,36.86
2023-03-29T14:06:07.439Z,35.97
2023-03-29T14:08:43.726Z,36.48
2023-03-29T14:11:38.430Z,36.90
2023-03-29T14:14:08.537Z,37.18
2023-03-29T14:16:40.186Z,37.18
2023-03-29T14:19:28.811Z,37.48
2023-03-29T14:22:01.115Z,37.46
2023-03-29T14:24:48.067Z,37.13
2023-03-29T14:27:17.654Z,36.78
2023-03-29T14:29:53.277Z,36.53
2023-03-29T14:32:31.350Z,37.13
2023-03-29T14:35:00.540Z,36.63
2023-03-29T14:37:29.970Z,36.66
2023-03-29T14:39:59.257Z,36.41
2023-03-29T14:42:29.205Z,36.15
2023-03-29T14:45:07.239Z,36.34
2023-03-29T14:47:36.501Z,36.47
2023-03-29T14:50:06.360Z,36.93
2023-03-29T14:52:34.938Z,36.75
2023-03-29T14:55:04.284Z,36.94
2023-03-29T14:57:36.454Z,36.55
2023-03-29T15:00:30.107Z,36.72
2023-03-29T15:03:02.654Z,37.07
2023-03-29T15:05:40.257Z,37.10
2023-03-29T15:08:14.850Z,37.35
2023-03-29T15:10:45.020Z,37.32
2023-03-29T15:13:22.061Z,37.54
2023-03-29T15:15:59.894Z,37.58
2023-03-29T15:18:41.510Z,37.61
2023-03-29T15:21:14.203Z,37.74
2023-03-29T15:24:02.216Z,38.34
2023-03-29T15:26:36.573Z,38.29
2023-03-29T15:29:23.258Z,38.51
2023-03-29T15:31:57.236Z,38.59
2023-03-29T15:34:31.672Z,39.02
2023-03-29T15:37:01.606Z,39.25
2023-03-29T15:39:30.413Z,39.37
2023-03-29T15:41:58.834Z,39.27
2023-03-29T15:44:32.902Z,39.45
2023-03-29T15:47:02.067Z,39.48
2023-03-29T15:49:30.304Z,39.48
2023-03-29T15:51:58.527Z,39.26
2023-03-29T15:54:28.722Z,39.47
2023-03-29T15:57:05.435Z,39.71
2023-03-29T15:59:34.977Z,39.68
2023-03-29T16:02:04.195Z,39.68
2023-03-29T16:04:32.437Z,39.82
2023-03-29T16:07:01.344Z,40.04
2023-03-29T16:09:29.498Z,40.08
2023-03-29T16:12:00.411Z,39.92
2023-03-29T16:14:31.551Z,39.81
2023-03-29T16:17:01.445Z,39.56
2023-03-29T16:19:31.586Z,39.54
2023-03-29T16:22:05.144Z,39.63
2023-03-29T16:24:34.928Z,39.43
2023-03-29T16:27:04.140Z,39.53
2023-03-29T16:29:32.698Z,39.82
2023-03-29T16:32:01.257Z,39.65
2023-03-29T16:34:30.204Z,39.89
2023-03-29T16:36:58.467Z,40.14
2023-03-29T16:39:27.277Z,40.01
2023-03-29T16:41:55.765Z,40.18
2023-03-29T16:44:25.844Z,40.12
2023-03-29T16:46:54.500Z,40.61
2023-03-29T16:49:24.333Z,40.68
2023-03-29T16:51:52.587Z,40.64
2023-03-29T16:54:20.732Z,40.72
2023-03-29T16:56:48.994Z,40.88
2023-03-29T16:59:17.244Z,40.89
2023-03-29T17:01:45.975Z,40.87
2023-03-29T17:04:14.194Z,40.98
2023-03-29T17:06:42.757Z,41.04
2023-03-29T17:09:10.922Z,41.03
2023-03-29T17:11:39.644Z,41.14
2023-03-29T17:14:07.887Z,41.25
2023-03-29T17:16:36.257Z,41.34
2023-03-29T17:19:04.791Z,41.28
2023-03-29T17:21:33.182Z,41.61
2023-03-29T17:24:01.381Z,41.71
2023-03-29T17:26:29.724Z,41.85
2023-03-29T17:28:57.814Z,41.89
2023-03-29T17:31:26.282Z,41.97
2023-03-29T17:33:54.686Z,42.14
2023-03-29T17:36:25.505Z,42.23
2023-03-29T17:38:54.919Z,42.35
2023-03-29T17:41:23.189Z,42.30
2023-03-29T17:43:52.072Z,42.41
2023-03-29T17:46:23.032Z,42.54
2023-03-29T17:48:51.514Z,42.49
2023-03-29T17:51:20.119Z,42.65
2023-03-29T17:53:48.302Z,42.95
2023-03-29T17:56:16.998Z,42.88
2023-03-29T17:58:45.435Z,42.95
2023-03-29T18:01:14.530Z,43.01
2023-03-29T18:03:43.011Z,43.36
2023-03-29T18:06:11.599Z,43.46
2023-03-29T18:08:40.693Z,43.52
2023-03-29T18:11:16.138Z,43.88
2023-03-29T18:13:44.908Z,44.07
2023-03-29T18:16:13.122Z,44.06
2023-03-29T18:18:41.688Z,44.26
2023-03-29T18:21:12.841Z,44.32
2023-03-29T18:23:45.386Z,44.53
2023-03-29T18:26:16.380Z,44.69
2023-03-29T18:28:47.125Z,44.88
2023-03-29T18:31:16.040Z,45.00
2023-03-29T18:33:44.439Z,45.11
2023-03-29T18:36:13.845Z,45.30
2023-03-29T18:38:43.551Z,45.23
2023-03-29T18:41:14.153Z,45.71
2023-03-29T18:43:43.310Z,45.75
2023-03-29T18:46:11.612Z,45.86
2023-03-29T18:48:41.194Z,45.89
2023-03-29T18:51:12.542Z,46.26
2023-03-29T18:53:43.105Z,46.24
2023-03-29T18:56:11.554Z,46.47
2023-03-29T18:58:39.934Z,46.62
2023-03-29T19:01:09.660Z,46.73
2023-03-29T19:03:37.985Z,46.75
2023-03-29T19:06:08.085Z,46.75
2023-03-29T19:08:38.760Z,47.10
2023-03-29T19:11:10.486Z,46.81
2023-03-29T19:13:38.685Z,46.93
2023-03-29T19:16:07.576Z,46.89
2023-03-29T19:18:36.703Z,47.16
2023-03-29T19:21:04.980Z,47.25
2023-03-29T19:23:33.591Z,46.97
2023-03-29T19:26:03.511Z,47.32
2023-03-29T19:28:34.120Z,47.40
2023-03-29T19:31:03.693Z,47.16
2023-03-29T19:33:32.412Z,47.63
2023-03-29T19:36:00.921Z,47.96
2023-03-29T19:38:29.281Z,47.72
2023-03-29T19:40:57.442Z,47.58
2023-03-29T19:43:25.919Z,47.98
2023-03-29T19:45:54.216Z,48.28
2023-03-29T19:48:24.071Z,48.31
2023-03-29T19:50:53.122Z,48.44
2023-03-29T19:53:23.320Z,48.11
2023-03-29T19:55:52.541Z,48.04
2023-03-29T19:58:21.726Z,48.15
2023-03-29T20:00:53.330Z,48.27
2023-03-29T20:03:21.987Z,48.53
2023-03-29T20:05:50.909Z,48.58
2023-03-29T20:08:19.349Z,49.01
2023-03-29T20:10:47.646Z,48.96
2023-03-29T20:13:21.885Z,48.94
2023-03-29T20:15:56.368Z,49.01
2023-03-29T20:18:24.676Z,49.34
2023-03-29T20:20:53.189Z,49.19
2023-03-29T20:23:21.471Z,49.33
2023-03-29T20:25:49.762Z,49.55
2023-03-29T20:28:18.570Z,49.58
2023-03-29T20:30:51.193Z,50.06
2023-03-29T20:33:21.000Z,50.27
2023-03-29T20:35:49.911Z,50.29
2023-03-29T20:38:18.233Z,50.36
2023-03-29T20:40:46.516Z,50.41
2023-03-29T20:43:18.992Z,50.56
2023-03-29T20:45:53.796Z,50.61
2023-03-29T20:48:24.752Z,51.02
2023-03-29T20:50:52.971Z,50.66
2023-03-29T20:53:21.315Z,50.99
2023-03-29T20:55:49.576Z,50.91
2023-03-29T20:58:17.776Z,51.08
2023-03-29T21:00:48.414Z,51.25
2023-03-29T21:03:16.901Z,51.14
2023-03-29T21:05:45.369Z,51.60
2023-03-29T21:08:17.623Z,51.36
2023-03-29T21:10:46.615Z,51.79
2023-03-29T21:13:15.317Z,51.76
2023-03-29T21:15:46.493Z,51.74
2023-03-29T21:18:15.759Z,51.52
2023-03-29T21:20:44.784Z,51.64
2023-03-29T21:23:13.550Z,51.76
2023-03-29T21:25:43.868Z,51.69
2023-03-29T21:28:13.364Z,51.98
2023-03-29T21:30:41.735Z,51.84
2023-03-29T21:33:10.094Z,51.89
2023-03-29T21:35:38.396Z,51.69
2023-03-29T21:38:06.697Z,52.03
2023-03-29T21:40:36.725Z,51.84
2023-03-29T21:43:05.283Z,52.56
2023-03-29T21:45:33.478Z,52.37
2023-03-29T21:48:01.806Z,52.59
2023-03-29T21:50:33.299Z,52.76
2023-03-29T21:53:02.120Z,52.74
2023-03-29T21:55:30.308Z,52.88
2023-03-29T21:57:58.652Z,53.09
2023-03-29T22:00:27.642Z,53.08
2023-03-29T22:02:57.140Z,53.42
2023-03-29T22:05:26.348Z,53.59
2023-03-29T22:07:54.681Z,53.49
2023-03-29T22:10:22.916Z,53.43
2023-03-29T22:12:51.698Z,53.61
2023-03-29T22:15:23.161Z,53.77
2023-03-29T22:17:53.427Z,54.05
2023-03-29T22:20:22.799Z,54.26
2023-03-29T22:22:51.416Z,54.33
2023-03-29T22:25:20.869Z,54.07
2023-03-29T22:27:49.418Z,54.14
2023-03-29T22:30:17.899Z,53.99
2023-03-29T22:32:46.356Z,54.27
2023-03-29T22:35:14.544Z,54.25
2023-03-29T22:37:45.687Z,54.31
2023-03-29T22:40:14.442Z,54.31
2023-03-29T22:42:42.587Z,54.41
2023-03-29T22:45:11.059Z,54.39
2023-03-29T22:47:39.273Z,54.58
2023-03-29T22:50:08.457Z,54.45
2023-03-29T22:52:36.674Z,54.41
2023-03-29T22:55:06.550Z,54.95
2023-03-29T22:57:34.720Z,54.81
2023-03-29T23:00:08.664Z,54.95
2023-03-29T23:02:37.362Z,54.70
2023-03-29T23:05:06.478Z,54.68
2023-03-29T23:07:36.633Z,54.92
2023-03-29T23:10:07.565Z,54.69
2023-03-29T23:12:36.358Z,54.81
2023-03-29T23:15:06.375Z,54.68
2023-03-29T23:17:35.088Z,54.74
2023-03-29T23:20:06.100Z,54.87
2023-03-29T23:22:36.340Z,54.96
2023-03-29T23:25:05.620Z,55.05
2023-03-29T23:27:34.830Z,55.10
2023-03-29T23:30:03.395Z,55.10
2023-03-29T23:32:31.651Z,55.17
2023-03-29T23:35:00.350Z,55.50
2023-03-29T23:37:28.487Z,55.40
2023-03-29T23:39:56.690Z,55.52
2023-03-29T23:42:24.831Z,56.22
2023-03-29T23:44:53.151Z,55.86
2023-03-29T23:47:21.616Z,55.88
2023-03-29T23:49:50.767Z,56.14
2023-03-29T23:52:19.048Z,56.16
2023-03-29T23:54:47.213Z,56.24
2023-03-29T23:57:15.914Z,56.45
2023-03-29T23:59:44.276Z,56.51
